sensor_id;sensor_type;location;lat;lon;timestamp;pressure;altitude;pressure_sealevel;temperature;humidity
71424;BME280;59240;51.370;-0.486;2023-12-04T00:00:34;100251.78;;;8.49;100.00
71424;BME280;59240;51.370;-0.486;2023-12-04T00:05:31;100237.19;;;8.43;100.00
71424;BME280;59240;51.370;-0.486;2023-12-04T00:10:28;100239.03;;;8.38;100.00
71424;BME280;59240;51.370;-0.486;2023-12-04T00:15:26;100229.56;;;8.34;100.00
71424;BME280;59240;51.370;-0.486;2023-12-04T00:20:23;100212.38;;;8.29;100.00
71424;BME280;59240;51.370;-0.486;2023-12-04T00:25:20;100180.75;;;8.13;100.00
71424;BME280;59240;51.370;-0.486;2023-12-04T00:30:17;100187.59;;;8.17;100.00
71424;BME280;59240;51.370;-0.486;2023-12-04T00:35:16;100178.06;;;8.17;100.00
71424;BME280;59240;51.370;-0.486;2023-12-04T00:40:13;100171.13;;;8.16;100.00
71424;BME280;59240;51.370;-0.486;2023-12-04T00:45:10;100160.03;;;8.11;100.00
71424;BME280;59240;51.370;-0.486;2023-12-04T00:50:07;100135.03;;;8.07;100.00
71424;BME280;59240;51.370;-0.486;2023-12-04T00:55:06;100124.66;;;8.07;100.00
71424;BME280;59240;51.370;-0.486;2023-12-04T01:00:03;100122.94;;;8.06;100.00
71424;BME280;59240;51.370;-0.486;2023-12-04T01:05:01;100110.91;;;8.02;100.00
71424;BME280;59240;51.370;-0.486;2023-12-04T01:09:57;100092.88;;;7.98;100.00
71424;BME280;59240;51.370;-0.486;2023-12-04T01:14:54;100086.91;;;7.94;100.00
71424;BME280;59240;51.370;-0.486;2023-12-04T01:19:51;100067.94;;;7.92;100.00
71424;BME280;59240;51.370;-0.486;2023-12-04T01:24:48;100064.72;;;7.81;100.00
71424;BME280;59240;51.370;-0.486;2023-12-04T01:29:45;100057.03;;;7.78;100.00
71424;BME280;59240;51.370;-0.486;2023-12-04T01:34:43;100042.50;;;7.71;100.00
71424;BME280;59240;51.370;-0.486;2023-12-04T01:39:40;100021.88;;;7.64;100.00
71424;BME280;59240;51.370;-0.486;2023-12-04T01:44:37;100009.94;;;7.57;100.00
71424;BME280;59240;51.370;-0.486;2023-12-04T01:49:34;99997.03;;;7.56;100.00
71424;BME280;59240;51.370;-0.486;2023-12-04T01:54:31;99994.59;;;7.48;100.00
71424;BME280;59240;51.370;-0.486;2023-12-04T01:59:28;99962.13;;;7.32;100.00
71424;BME280;59240;51.370;-0.486;2023-12-04T02:04:25;99980.03;;;7.41;100.00
71424;BME280;59240;51.370;-0.486;2023-12-04T02:09:22;99967.16;;;7.38;100.00
71424;BME280;59240;51.370;-0.486;2023-12-04T02:14:19;99963.69;;;7.39;100.00
71424;BME280;59240;51.370;-0.486;2023-12-04T02:19:16;99955.25;;;7.31;100.00
71424;BME280;59240;51.370;-0.486;2023-12-04T02:24:13;99944.03;;;7.30;100.00
71424;BME280;59240;51.370;-0.486;2023-12-04T02:29:15;99938.81;;;7.32;100.00
71424;BME280;59240;51.370;-0.486;2023-12-04T02:34:16;99934.56;;;7.29;100.00
71424;BME280;59240;51.370;-0.486;2023-12-04T02:39:13;99922.53;;;7.25;100.00
71424;BME280;59240;51.370;-0.486;2023-12-04T02:44:10;99910.38;;;7.29;100.00
71424;BME280;59240;51.370;-0.486;2023-12-04T02:49:07;99907.75;;;7.30;100.00
71424;BME280;59240;51.370;-0.486;2023-12-04T02:54:03;99883.63;;;7.28;100.00
71424;BME280;59240;51.370;-0.486;2023-12-04T02:59:00;99875.81;;;7.30;100.00
71424;BME280;59240;51.370;-0.486;2023-12-04T03:03:57;99865.44;;;7.30;100.00
71424;BME280;59240;51.370;-0.486;2023-12-04T03:08:54;99855.13;;;7.28;100.00
71424;BME280;59240;51.370;-0.486;2023-12-04T03:13:51;99849.97;;;7.27;100.00
71424;BME280;59240;51.370;-0.486;2023-12-04T03:18:48;99836.22;;;7.25;100.00
71424;BME280;59240;51.370;-0.486;2023-12-04T03:23:45;99834.41;;;7.27;100.00
71424;BME280;59240;51.370;-0.486;2023-12-04T03:28:41;99823.19;;;7.28;100.00
71424;BME280;59240;51.370;-0.486;2023-12-04T03:33:39;99814.59;;;7.26;100.00
71424;BME280;59240;51.370;-0.486;2023-12-04T03:38:36;99801.59;;;7.29;100.00
71424;BME280;59240;51.370;-0.486;2023-12-04T03:43:33;99796.31;;;7.32;100.00
71424;BME280;59240;51.370;-0.486;2023-12-04T03:48:30;99786.84;;;7.31;100.00
71424;BME280;59240;51.370;-0.486;2023-12-04T03:53:27;99788.53;;;7.32;100.00
71424;BME280;59240;51.370;-0.486;2023-12-04T03:58:24;99763.66;;;7.25;100.00
71424;BME280;59240;51.370;-0.486;2023-12-04T04:03:20;99759.28;;;7.27;100.00
71424;BME280;59240;51.370;-0.486;2023-12-04T04:08:17;99781.31;;;7.45;100.00
71424;BME280;59240;51.370;-0.486;2023-12-04T04:13:14;99774.34;;;7.47;100.00
71424;BME280;59240;51.370;-0.486;2023-12-04T04:18:11;99762.28;;;7.46;100.00
71424;BME280;59240;51.370;-0.486;2023-12-04T04:23:10;99763.06;;;7.49;100.00
71424;BME280;59240;51.370;-0.486;2023-12-04T04:28:07;99752.72;;;7.49;100.00
71424;BME280;59240;51.370;-0.486;2023-12-04T04:33:07;99751.84;;;7.49;100.00
71424;BME280;59240;51.370;-0.486;2023-12-04T04:38:04;99733.66;;;7.50;100.00
71424;BME280;59240;51.370;-0.486;2023-12-04T04:43:00;99742.19;;;7.55;100.00
71424;BME280;59240;51.370;-0.486;2023-12-04T04:47:57;99736.06;;;7.58;100.00
71424;BME280;59240;51.370;-0.486;2023-12-04T04:52:54;99729.09;;;7.60;100.00
71424;BME280;59240;51.370;-0.486;2023-12-04T04:57:51;99726.44;;;7.61;100.00
71424;BME280;59240;51.370;-0.486;2023-12-04T05:02:48;99699.88;;;7.53;100.00
71424;BME280;59240;51.370;-0.486;2023-12-04T05:07:44;99711.72;;;7.63;100.00
71424;BME280;59240;51.370;-0.486;2023-12-04T05:12:41;99690.22;;;7.60;100.00
71424;BME280;59240;51.370;-0.486;2023-12-04T05:17:38;99681.50;;;7.62;100.00
71424;BME280;59240;51.370;-0.486;2023-12-04T05:22:37;99678.09;;;7.60;100.00
71424;BME280;59240;51.370;-0.486;2023-12-04T05:27:34;99674.72;;;7.58;100.00
71424;BME280;59240;51.370;-0.486;2023-12-04T05:32:31;99669.53;;;7.58;100.00
71424;BME280;59240;51.370;-0.486;2023-12-04T05:37:28;99663.44;;;7.59;100.00
71424;BME280;59240;51.370;-0.486;2023-12-04T05:42:25;99654.75;;;7.62;100.00
71424;BME280;59240;51.370;-0.486;2023-12-04T05:47:21;99641.97;;;7.54;100.00
71424;BME280;59240;51.370;-0.486;2023-12-04T05:52:18;99650.41;;;7.62;100.00
71424;BME280;59240;51.370;-0.486;2023-12-04T05:57:16;99641.75;;;7.63;100.00
71424;BME280;59240;51.370;-0.486;2023-12-04T06:02:13;99636.56;;;7.63;100.00
71424;BME280;59240;51.370;-0.486;2023-12-04T06:07:13;99629.56;;;7.65;100.00
71424;BME280;59240;51.370;-0.486;2023-12-04T06:12:10;99635.66;;;7.64;100.00
71424;BME280;59240;51.370;-0.486;2023-12-04T06:17:07;99617.59;;;7.61;100.00
71424;BME280;59240;51.370;-0.486;2023-12-04T06:22:04;99621.00;;;7.63;100.00
71424;BME280;59240;51.370;-0.486;2023-12-04T06:27:01;99610.69;;;7.62;100.00
71424;BME280;59240;51.370;-0.486;2023-12-04T06:31:58;99601.97;;;7.64;100.00
71424;BME280;59240;51.370;-0.486;2023-12-04T06:36:56;99595.97;;;7.62;100.00
71424;BME280;59240;51.370;-0.486;2023-12-04T06:41:53;99598.59;;;7.61;100.00
71424;BME280;59240;51.370;-0.486;2023-12-04T06:46:52;99596.06;;;7.59;100.00
71424;BME280;59240;51.370;-0.486;2023-12-04T06:51:48;99593.38;;;7.62;100.00
71424;BME280;59240;51.370;-0.486;2023-12-04T06:56:45;99588.28;;;7.59;100.00
71424;BME280;59240;51.370;-0.486;2023-12-04T07:01:42;99563.59;;;7.46;100.00
71424;BME280;59240;51.370;-0.486;2023-12-04T07:06:40;99584.78;;;7.60;100.00
71424;BME280;59240;51.370;-0.486;2023-12-04T07:11:39;99576.31;;;7.55;100.00
71424;BME280;59240;51.370;-0.486;2023-12-04T07:16:41;99573.72;;;7.55;100.00
71424;BME280;59240;51.370;-0.486;2023-12-04T07:21:38;99533.00;;;7.29;100.00
71424;BME280;59240;51.370;-0.486;2023-12-04T07:26:36;99578.00;;;7.56;100.00
71424;BME280;59240;51.370;-0.486;2023-12-04T07:31:33;99572.91;;;7.53;100.00
71424;BME280;59240;51.370;-0.486;2023-12-04T07:36:29;99571.22;;;7.52;100.00
71424;BME280;59240;51.370;-0.486;2023-12-04T07:41:26;99552.28;;;7.50;100.00
71424;BME280;59240;51.370;-0.486;2023-12-04T07:46:23;99562.63;;;7.50;100.00
71424;BME280;59240;51.370;-0.486;2023-12-04T07:51:21;99557.47;;;7.50;100.00
71424;BME280;59240;51.370;-0.486;2023-12-04T07:56:17;99540.56;;;7.37;100.00
71424;BME280;59240;51.370;-0.486;2023-12-04T08:01:15;99568.63;;;7.52;100.00
71424;BME280;59240;51.370;-0.486;2023-12-04T08:06:12;99553.28;;;7.45;100.00
71424;BME280;59240;51.370;-0.486;2023-12-04T08:11:12;99551.72;;;7.39;100.00
71424;BME280;59240;51.370;-0.486;2023-12-04T08:16:13;99527.06;;;7.26;100.00
71424;BME280;59240;51.370;-0.486;2023-12-04T08:21:11;99531.78;;;7.41;100.00
71424;BME280;59240;51.370;-0.486;2023-12-04T08:26:09;99552.28;;;7.50;100.00
71424;BME280;59240;51.370;-0.486;2023-12-04T08:31:07;99487.50;;;7.21;100.00
71424;BME280;59240;51.370;-0.486;2023-12-04T08:36:05;99541.72;;;7.56;100.00
71424;BME280;59240;51.370;-0.486;2023-12-04T08:41:03;99551.06;;;7.62;100.00
71424;BME280;59240;51.370;-0.486;2023-12-04T08:46:00;99549.19;;;7.67;100.00
71424;BME280;59240;51.370;-0.486;2023-12-04T08:50:57;99526.94;;;7.60;100.00
71424;BME280;59240;51.370;-0.486;2023-12-04T08:55:55;99555.03;;;7.74;100.00
71424;BME280;59240;51.370;-0.486;2023-12-04T09:00:54;99553.25;;;7.76;100.00
71424;BME280;59240;51.370;-0.486;2023-12-04T09:05:50;99553.25;;;7.76;100.00
71424;BME280;59240;51.370;-0.486;2023-12-04T09:10:49;99546.16;;;7.81;100.00
71424;BME280;59240;51.370;-0.486;2023-12-04T09:15:51;99533.91;;;7.86;100.00
71424;BME280;59240;51.370;-0.486;2023-12-04T09:20:48;99537.28;;;7.89;100.00
71424;BME280;59240;51.370;-0.486;2023-12-04T09:25:45;99540.59;;;7.93;100.00
71424;BME280;59240;51.370;-0.486;2023-12-04T09:30:42;99528.41;;;7.97;100.00
71424;BME280;59240;51.370;-0.486;2023-12-04T09:35:39;99537.59;;;8.07;100.00
71424;BME280;59240;51.370;-0.486;2023-12-04T09:40:35;99508.59;;;7.94;100.00
71424;BME280;59240;51.370;-0.486;2023-12-04T09:45:32;99532.06;;;8.17;100.00
71424;BME280;59240;51.370;-0.486;2023-12-04T09:50:29;99551.72;;;8.25;100.00
71424;BME280;59240;51.370;-0.486;2023-12-04T09:55:27;99546.34;;;8.31;100.00
71424;BME280;59240;51.370;-0.486;2023-12-04T10:00:24;99540.13;;;8.36;100.00
71424;BME280;59240;51.370;-0.486;2023-12-04T10:05:21;99513.78;;;8.20;100.00
71424;BME280;59240;51.370;-0.486;2023-12-04T10:10:18;99528.81;;;8.39;100.00
71424;BME280;59240;51.370;-0.486;2023-12-04T10:15:15;99522.44;;;8.47;100.00
71424;BME280;59240;51.370;-0.486;2023-12-04T10:20:15;99518.69;;;8.56;100.00
71424;BME280;59240;51.370;-0.486;2023-12-04T10:25:16;99516.47;;;8.70;100.00
71424;BME280;59240;51.370;-0.486;2023-12-04T10:35:21;99517.03;;;8.80;100.00
71424;BME280;59240;51.370;-0.486;2023-12-04T10:40:26;99520.34;;;8.84;100.00
71424;BME280;59240;51.370;-0.486;2023-12-04T10:45:23;99510.16;;;8.77;100.00
71424;BME280;59240;51.370;-0.486;2023-12-04T10:50:20;99510.97;;;8.80;100.00
71424;BME280;59240;51.370;-0.486;2023-12-04T10:55:21;99517.16;;;8.75;100.00
71424;BME280;59240;51.370;-0.486;2023-12-04T11:00:20;99496.41;;;8.75;100.00
71424;BME280;59240;51.370;-0.486;2023-12-04T11:05:19;99470.84;;;8.63;100.00
71424;BME280;59240;51.370;-0.486;2023-12-04T11:10:22;99493.66;;;8.80;100.00
71424;BME280;59240;51.370;-0.486;2023-12-04T11:15:23;99486.97;;;8.73;100.00
71424;BME280;59240;51.370;-0.486;2023-12-04T11:20:27;99486.66;;;8.82;100.00
71424;BME280;59240;51.370;-0.486;2023-12-04T11:25:24;99475.41;;;8.82;100.00
71424;BME280;59240;51.370;-0.486;2023-12-04T11:30:22;99448.94;;;8.72;100.00
71424;BME280;59240;51.370;-0.486;2023-12-04T11:35:20;99458.78;;;8.87;100.00
71424;BME280;59240;51.370;-0.486;2023-12-04T11:40:17;99456.09;;;8.89;100.00
71424;BME280;59240;51.370;-0.486;2023-12-04T11:45:18;99448.16;;;8.93;100.00
71424;BME280;59240;51.370;-0.486;2023-12-04T11:50:20;99442.22;;;8.90;100.00
71424;BME280;59240;51.370;-0.486;2023-12-04T11:55:21;99445.50;;;8.95;100.00
71424;BME280;59240;51.370;-0.486;2023-12-04T12:00:21;99439.63;;;8.90;100.00
71424;BME280;59240;51.370;-0.486;2023-12-04T12:05:23;99453.84;;;9.03;100.00
71424;BME280;59240;51.370;-0.486;2023-12-04T12:10:21;99445.72;;;9.12;100.00
71424;BME280;59240;51.370;-0.486;2023-12-04T12:15:20;99441.53;;;9.08;100.00
71424;BME280;59240;51.370;-0.486;2023-12-04T12:20:18;99447.31;;;9.16;100.00
71424;BME280;59240;51.370;-0.486;2023-12-04T12:25:17;99438.78;;;9.13;100.00
71424;BME280;59240;51.370;-0.486;2023-12-04T12:30:14;99443.09;;;9.12;100.00
71424;BME280;59240;51.370;-0.486;2023-12-04T12:35:11;99432.72;;;9.12;100.00
71424;BME280;59240;51.370;-0.486;2023-12-04T12:40:09;99437.91;;;9.12;100.00
71424;BME280;59240;51.370;-0.486;2023-12-04T12:45:08;99409.00;;;8.98;100.00
71424;BME280;59240;51.370;-0.486;2023-12-04T12:50:09;99424.03;;;9.13;100.00
71424;BME280;59240;51.370;-0.486;2023-12-04T12:55:11;99420.59;;;9.13;100.00
71424;BME280;59240;51.370;-0.486;2023-12-04T13:00:08;99423.06;;;9.16;100.00
71424;BME280;59240;51.370;-0.486;2023-12-04T13:05:06;99389.81;;;9.02;100.00
71424;BME280;59240;51.370;-0.486;2023-12-04T13:10:04;99412.50;;;9.20;100.00
71424;BME280;59240;51.370;-0.486;2023-12-04T13:15:20;99400.22;;;9.24;100.00
71424;BME280;59240;51.370;-0.486;2023-12-04T13:20:17;99375.22;;;9.21;100.00
71424;BME280;59240;51.370;-0.486;2023-12-04T13:25:14;99402.91;;;9.44;100.00
71424;BME280;59240;51.370;-0.486;2023-12-04T13:30:11;99396.03;;;9.43;100.00
71424;BME280;59240;51.370;-0.486;2023-12-04T13:35:08;99391.66;;;9.44;100.00
71424;BME280;59240;51.370;-0.486;2023-12-04T13:40:06;99387.31;;;9.44;100.00
71424;BME280;59240;51.370;-0.486;2023-12-04T13:45:03;99377.75;;;9.45;100.00
71424;BME280;59240;51.370;-0.486;2023-12-04T13:50:05;99376.22;;;9.41;100.00
71424;BME280;59240;51.370;-0.486;2023-12-04T13:55:02;99377.09;;;9.40;100.00
71424;BME280;59240;51.370;-0.486;2023-12-04T14:00:11;99371.13;;;9.38;100.00
71424;BME280;59240;51.370;-0.486;2023-12-04T14:05:11;99375.41;;;9.39;100.00
71424;BME280;59240;51.370;-0.486;2023-12-04T14:10:13;99376.44;;;9.35;100.00
71424;BME280;59240;51.370;-0.486;2023-12-04T14:15:11;99369.78;;;9.27;100.00
71424;BME280;59240;51.370;-0.486;2023-12-04T14:20:08;99372.44;;;9.26;100.00
71424;BME280;59240;51.370;-0.486;2023-12-04T14:25:09;99369.72;;;9.29;100.00
71424;BME280;59240;51.370;-0.486;2023-12-04T14:30:07;99373.16;;;9.29;100.00
71424;BME280;59240;51.370;-0.486;2023-12-04T14:35:05;99316.41;;;8.97;100.00
71424;BME280;59240;51.370;-0.486;2023-12-04T14:40:04;99367.06;;;9.30;100.00
71424;BME280;59240;51.370;-0.486;2023-12-04T14:45:02;99367.13;;;9.29;100.00
71424;BME280;59240;51.370;-0.486;2023-12-04T14:49:59;99332.31;;;9.11;100.00
71424;BME280;59240;51.370;-0.486;2023-12-04T14:54:55;99361.19;;;9.25;100.00
71424;BME280;59240;51.370;-0.486;2023-12-04T15:00:11;99352.84;;;9.17;100.00
71424;BME280;59240;51.370;-0.486;2023-12-04T15:05:17;99346.44;;;9.04;100.00
71424;BME280;59240;51.370;-0.486;2023-12-04T15:10:20;99369.53;;;9.12;100.00
71424;BME280;59240;51.370;-0.486;2023-12-04T15:15:35;99370.72;;;9.03;100.00
71424;BME280;59240;51.370;-0.486;2023-12-04T15:20:32;99375.22;;;8.99;100.00
71424;BME280;59240;51.370;-0.486;2023-12-04T15:25:33;99384.16;;;8.91;100.00
71424;BME280;59240;51.370;-0.486;2023-12-04T15:30:31;99386.91;;;8.88;100.00
71424;BME280;59240;51.370;-0.486;2023-12-04T15:35:28;99382.94;;;8.77;100.00
71424;BME280;59240;51.370;-0.486;2023-12-04T15:40:25;99388.13;;;8.77;100.00
71424;BME280;59240;51.370;-0.486;2023-12-04T15:45:21;99389.16;;;8.73;100.00
71424;BME280;59240;51.370;-0.486;2023-12-04T15:50:19;99397.84;;;8.72;100.00
71424;BME280;59240;51.370;-0.486;2023-12-04T15:55:17;99381.47;;;8.47;100.00
71424;BME280;59240;51.370;-0.486;2023-12-04T16:00:14;99410.59;;;8.55;100.00
71424;BME280;59240;51.370;-0.486;2023-12-04T16:05:12;99409.84;;;8.52;100.00
71424;BME280;59240;51.370;-0.486;2023-12-04T16:10:09;99418.63;;;8.47;100.00
71424;BME280;59240;51.370;-0.486;2023-12-04T16:15:08;99395.94;;;8.28;100.00
71424;BME280;59240;51.370;-0.486;2023-12-04T16:20:06;99430.06;;;8.42;100.00
71424;BME280;59240;51.370;-0.486;2023-12-04T16:25:10;99436.28;;;8.38;100.00
71424;BME280;59240;51.370;-0.486;2023-12-04T16:30:09;99433.03;;;8.31;100.00
71424;BME280;59240;51.370;-0.486;2023-12-04T16:35:08;99441.69;;;8.30;100.00
71424;BME280;59240;51.370;-0.486;2023-12-04T16:40:06;99442.66;;;8.28;100.00
71424;BME280;59240;51.370;-0.486;2023-12-04T16:45:04;99451.53;;;8.20;100.00
71424;BME280;59240;51.370;-0.486;2023-12-04T16:50:01;99419.44;;;7.98;100.00
71424;BME280;59240;51.370;-0.486;2023-12-04T16:54:59;99457.03;;;8.11;100.00
71424;BME280;59240;51.370;-0.486;2023-12-04T16:59:56;99458.16;;;8.03;100.00
71424;BME280;59240;51.370;-0.486;2023-12-04T17:04:53;99469.50;;;8.00;100.00
71424;BME280;59240;51.370;-0.486;2023-12-04T17:09:50;99470.66;;;7.91;100.00
71424;BME280;59240;51.370;-0.486;2023-12-04T17:14:47;99476.75;;;7.89;100.00
71424;BME280;59240;51.370;-0.486;2023-12-04T17:19:43;99477.72;;;7.86;100.00
71424;BME280;59240;51.370;-0.486;2023-12-04T17:24:44;99490.63;;;7.88;100.00
71424;BME280;59240;51.370;-0.486;2023-12-04T17:29:41;99495.94;;;7.85;100.00
71424;BME280;59240;51.370;-0.486;2023-12-04T17:34:37;99504.59;;;7.84;100.00
71424;BME280;59240;51.370;-0.486;2023-12-04T17:39:35;99503.88;;;7.79;100.00
71424;BME280;59240;51.370;-0.486;2023-12-04T17:44:32;99515.91;;;7.81;100.00
71424;BME280;59240;51.370;-0.486;2023-12-04T17:49:33;99515.94;;;7.80;100.00
71424;BME280;59240;51.370;-0.486;2023-12-04T17:54:30;99530.72;;;7.78;100.00
71424;BME280;59240;51.370;-0.486;2023-12-04T17:59:27;99535.97;;;7.76;100.00
71424;BME280;59240;51.370;-0.486;2023-12-04T18:04:26;99532.66;;;7.71;100.00
71424;BME280;59240;51.370;-0.486;2023-12-04T18:09:23;99522.34;;;7.70;100.00
71424;BME280;59240;51.370;-0.486;2023-12-04T18:14:22;99531.94;;;7.66;100.00
71424;BME280;59240;51.370;-0.486;2023-12-04T18:19:19;99535.28;;;7.70;100.00
71424;BME280;59240;51.370;-0.486;2023-12-04T18:24:16;99534.56;;;7.64;100.00
71424;BME280;59240;51.370;-0.486;2023-12-04T18:29:13;99547.53;;;7.64;100.00
71424;BME280;59240;51.370;-0.486;2023-12-04T18:34:10;99557.84;;;7.66;100.00
71424;BME280;59240;51.370;-0.486;2023-12-04T18:39:07;99558.78;;;7.63;100.00
71424;BME280;59240;51.370;-0.486;2023-12-04T18:44:05;99544.41;;;7.53;100.00
71424;BME280;59240;51.370;-0.486;2023-12-04T18:49:03;99560.56;;;7.61;100.00
71424;BME280;59240;51.370;-0.486;2023-12-04T18:54:01;99538.66;;;7.44;100.00
71424;BME280;59240;51.370;-0.486;2023-12-04T18:58:59;99579.59;;;7.60;100.00
71424;BME280;59240;51.370;-0.486;2023-12-04T19:04:02;99576.22;;;7.58;100.00
71424;BME280;59240;51.370;-0.486;2023-12-04T19:08:59;99584.03;;;7.57;100.00
71424;BME280;59240;51.370;-0.486;2023-12-04T19:13:56;99590.06;;;7.57;100.00
71424;BME280;59240;51.370;-0.486;2023-12-04T19:18:54;99592.72;;;7.56;100.00
71424;BME280;59240;51.370;-0.486;2023-12-04T19:23:51;99600.34;;;7.60;100.00
71424;BME280;59240;51.370;-0.486;2023-12-04T19:28:47;99602.03;;;7.61;100.00
71424;BME280;59240;51.370;-0.486;2023-12-04T19:33:44;99613.22;;;7.63;100.00
71424;BME280;59240;51.370;-0.486;2023-12-04T19:38:41;99609.91;;;7.58;100.00
71424;BME280;59240;51.370;-0.486;2023-12-04T19:43:38;99625.41;;;7.60;100.00
71424;BME280;59240;51.370;-0.486;2023-12-04T19:48:35;99628.06;;;7.58;100.00
71424;BME280;59240;51.370;-0.486;2023-12-04T19:53:31;99641.06;;;7.57;100.00
71424;BME280;59240;51.370;-0.486;2023-12-04T19:58:28;99631.72;;;7.51;100.00
71424;BME280;59240;51.370;-0.486;2023-12-04T20:03:25;99643.88;;;7.49;100.00
71424;BME280;59240;51.370;-0.486;2023-12-04T20:08:22;99645.72;;;7.44;100.00
71424;BME280;59240;51.370;-0.486;2023-12-04T20:13:19;99639.81;;;7.39;100.00
71424;BME280;59240;51.370;-0.486;2023-12-04T20:18:16;99655.50;;;7.34;100.00
71424;BME280;59240;51.370;-0.486;2023-12-04T20:23:13;99666.81;;;7.30;100.00
71424;BME280;59240;51.370;-0.486;2023-12-04T20:28:11;99644.84;;;7.12;100.00
71424;BME280;59240;51.370;-0.486;2023-12-04T20:33:09;99680.63;;;7.31;100.00
71424;BME280;59240;51.370;-0.486;2023-12-04T20:38:07;99684.91;;;7.32;100.00
71424;BME280;59240;51.370;-0.486;2023-12-04T20:43:05;99692.63;;;7.33;100.00
71424;BME280;59240;51.370;-0.486;2023-12-04T20:48:03;99696.97;;;7.34;100.00
71424;BME280;59240;51.370;-0.486;2023-12-04T20:58:55;99700.66;;;7.24;100.00
71424;BME280;59240;51.370;-0.486;2023-12-04T21:03:54;99703.28;;;7.23;100.00
71424;BME280;59240;51.370;-0.486;2023-12-04T21:08:51;99707.00;;;7.12;100.00
71424;BME280;59240;51.370;-0.486;2023-12-04T21:13:48;99731.78;;;7.23;100.00
71424;BME280;59240;51.370;-0.486;2023-12-04T21:18:45;99748.22;;;7.22;100.00
71424;BME280;59240;51.370;-0.486;2023-12-04T21:23:45;99754.41;;;7.16;100.00
71424;BME280;59240;51.370;-0.486;2023-12-04T21:28:42;99760.44;;;7.17;100.00
71424;BME280;59240;51.370;-0.486;2023-12-04T21:33:39;99758.63;;;7.19;100.00
71424;BME280;59240;51.370;-0.486;2023-12-04T21:38:36;99760.44;;;7.17;100.00
71424;BME280;59240;51.370;-0.486;2023-12-04T21:43:34;99766.53;;;7.14;100.00
71424;BME280;59240;51.370;-0.486;2023-12-04T21:48:31;99742.72;;;6.98;100.00
71424;BME280;59240;51.370;-0.486;2023-12-04T21:53:27;99771.81;;;7.09;100.00
71424;BME280;59240;51.370;-0.486;2023-12-04T21:58:24;99781.38;;;7.07;100.00
71424;BME280;59240;51.370;-0.486;2023-12-04T22:03:25;99808.75;;;7.18;100.00
71424;BME280;59240;51.370;-0.486;2023-12-04T22:08:22;99786.69;;;7.01;100.00
71424;BME280;59240;51.370;-0.486;2023-12-04T22:13:19;99814.09;;;7.10;100.00
71424;BME280;59240;51.370;-0.486;2023-12-04T22:18:15;99822.59;;;7.17;100.00
71424;BME280;59240;51.370;-0.486;2023-12-04T22:23:15;99832.94;;;7.17;100.00
71424;BME280;59240;51.370;-0.486;2023-12-04T22:28:12;99841.47;;;7.20;100.00
71424;BME280;59240;51.370;-0.486;2023-12-04T22:33:09;99839.81;;;7.18;100.00
71424;BME280;59240;51.370;-0.486;2023-12-04T22:38:06;99831.44;;;7.06;100.00
71424;BME280;59240;51.370;-0.486;2023-12-04T22:43:03;99844.28;;;7.11;100.00
71424;BME280;59240;51.370;-0.486;2023-12-04T22:48:00;99852.88;;;7.15;100.00
71424;BME280;59240;51.370;-0.486;2023-12-04T22:52:57;99865.81;;;7.15;100.00
71424;BME280;59240;51.370;-0.486;2023-12-04T22:58:04;99832.69;;;6.90;100.00
71424;BME280;59240;51.370;-0.486;2023-12-04T23:03:01;99873.69;;;7.10;100.00
71424;BME280;59240;51.370;-0.486;2023-12-04T23:07:57;99883.19;;;7.09;100.00
71424;BME280;59240;51.370;-0.486;2023-12-04T23:12:55;99862.81;;;6.94;100.00
71424;BME280;59240;51.370;-0.486;2023-12-04T23:17:53;99897.19;;;6.99;100.00
71424;BME280;59240;51.370;-0.486;2023-12-04T23:22:50;99914.53;;;6.97;100.00
71424;BME280;59240;51.370;-0.486;2023-12-04T23:27:47;99913.72;;;6.95;100.00
71424;BME280;59240;51.370;-0.486;2023-12-04T23:32:44;99933.53;;;6.96;100.00
71424;BME280;59240;51.370;-0.486;2023-12-04T23:37:41;99928.34;;;6.96;100.00
71424;BME280;59240;51.370;-0.486;2023-12-04T23:42:38;99935.31;;;6.94;100.00
71424;BME280;59240;51.370;-0.486;2023-12-04T23:47:35;99937.06;;;6.94;100.00
71424;BME280;59240;51.370;-0.486;2023-12-04T23:52:31;99937.06;;;6.92;100.00
71424;BME280;59240;51.370;-0.486;2023-12-04T23:57:28;99950.84;;;6.94;100.00
